Baltimore, Maryland
Traffic Map
Current Weather Conditions
Baltimore, Maryland
Scattered Clouds
Scattered Clouds
89°
Feels Like: 98°
Wind Chill: 89° Ceiling: Unl
Heat Index: 98° Visibility: 10mi
Dew Point: 74° Wind: 9mph
Humidity: 61% Direction: 200° (SSW)
Pressure: 29.97in Gusts: 0mph
Raw Report DataKBWI 221654Z 20008KT 10SM FEW048 SCT250 32/23 A2997 RMK AO2 SLP146 T03170233
Traffic Incident Summary
Active as of:
Severity:
Category:
InformationThere was an issue retrieving the traffic information for this location. Please try a different location or try again shortly.
Advertisements